Main page
METAR-TAF:

METAR-TAF

Airports :

RAF Northolt

Northolt, England

latitude: 51-33N, longitude: 000-25W, elevation: 38 m

Current weather observation

The report was made 44 minutes ago, at 05:50 UTC
Wind 9 kt from the West/Northwest
Temperature 5°C
Humidity 81%
Pressure 1020 hPa
Visibility 10 km or more

METAR: EGWU 170550Z AUTO 29009KT 9999 // SCT110/// SCT160/// 05/02 Q1020

Time: 06:34 (06:34 UTC)

Forecast

The report was made 2 hours and 17 minutes ago, at 04:17 UTC
Forecast valid from 17 at 06 UTC to 17 at 24 UTC
Wind 10 kt from the West/Northwest
Visibility 10 km or more
Scattered clouds at a height of 3000 ft
Probability 30%
from 17 at 06 UTC to 17 at 09 UTC
Scattered clouds at a height of 1600 ft
Probability 30% :
Temporary
from 17 at 11 UTC to 17 at 14 UTC
Scattered clouds at a height of 1600 ft
Probability 30%
from 17 at 23 UTC to 17 at 24 UTC
Visibility: 7000 m
haze

TAF: EGWU 170417Z 1706/1724 29010KT 9999 SCT030 PROB30 1706/1709 SCT016 PROB30 TEMPO 1711/1714 SCT016 PROB30 1723/1724 7000 HZ

Weather observations and forecasts of more than 4000 airports (METAR and TAF reports).

The available stations are represented by yellow and red dots on the map.

Hover mouse over dot to see the name of the station.

Then click to see weather observations and forecasts.

To change the map : click on the green buttons with a black cross to zoom in, on the green button with a dash to zoom out, or on the green arrows for adjacent maps.


METAR-TAF: